createdAt,value
2022-08-25T00:00:23.074Z,5.28
2022-08-25T00:03:08.209Z,4.72
2022-08-25T00:05:37.942Z,4.72
2022-08-25T00:08:09.933Z,4.70
2022-08-25T00:10:41.690Z,4.38
2022-08-25T00:13:11.431Z,4.50
2022-08-25T00:18:11.526Z,4.07
2022-08-25T00:20:49.842Z,4.10
2022-08-25T00:23:20.953Z,4.25
2022-08-25T00:25:50.937Z,4.47
2022-08-25T00:28:20.346Z,3.90
2022-08-25T00:30:50.101Z,3.78
2022-08-25T00:35:50.296Z,3.78
2022-08-25T00:38:21.519Z,4.18
2022-08-25T00:41:05.892Z,3.83
2022-08-25T00:43:38.522Z,3.55
2022-08-25T00:46:08.903Z,3.97
2022-08-25T00:48:40.410Z,4.05
2022-08-25T00:51:14.761Z,4.22
2022-08-25T00:53:45.945Z,3.80
2022-08-25T00:56:16.264Z,3.67
2022-08-25T00:58:48.414Z,3.92
2022-08-25T01:01:18.022Z,3.60
2022-08-25T01:03:47.580Z,3.92
2022-08-25T01:06:16.943Z,3.65
2022-08-25T01:08:48.465Z,3.35
2022-08-25T01:11:17.977Z,3.88
2022-08-25T01:13:55.388Z,3.72
2022-08-25T01:16:26.370Z,3.53
2022-08-25T01:19:00.574Z,3.90
2022-08-25T01:21:34.526Z,4.03
2022-08-25T01:24:04.517Z,3.83
2022-08-25T01:29:22.817Z,4.40
2022-08-25T01:31:55.950Z,3.90
2022-08-25T01:34:26.897Z,4.20
2022-08-25T01:36:59.287Z,4.35
2022-08-25T01:39:31.100Z,4.32
2022-08-25T01:42:20.623Z,4.30
2022-08-25T01:44:50.577Z,4.53
2022-08-25T01:47:20.185Z,5.25
2022-08-25T01:49:49.541Z,5.10
2022-08-25T01:52:25.723Z,5.43
2022-08-25T01:54:55.064Z,5.25
2022-08-25T01:57:24.625Z,5.07
2022-08-25T01:59:54.896Z,4.95
2022-08-25T02:02:24.221Z,4.97
2022-08-25T02:04:56.602Z,5.47
2022-08-25T02:07:27.406Z,5.45
2022-08-25T02:09:57.155Z,5.35
2022-08-25T02:12:31.946Z,5.35
2022-08-25T02:15:02.806Z,5.38
2022-08-25T02:17:32.924Z,5.15
2022-08-25T02:20:02.502Z,5.57
2022-08-25T02:25:02.678Z,5.57
2022-08-25T02:27:32.264Z,5.65
2022-08-25T02:30:01.551Z,5.47
2022-08-25T02:32:31.335Z,5.93
2022-08-25T02:35:01.050Z,5.47
2022-08-25T02:37:30.460Z,5.85
2022-08-25T02:40:01.312Z,6.60
2022-08-25T02:42:31.366Z,6.35
2022-08-25T02:45:00.640Z,6.43
2022-08-25T02:47:31.954Z,6.20
2022-08-25T02:50:01.513Z,5.97
2022-08-25T02:52:31.231Z,6.10
2022-08-25T02:57:33.853Z,6.38
2022-08-25T03:00:03.471Z,6.97
2022-08-25T03:02:32.815Z,7.03
2022-08-25T03:05:02.478Z,7.28
2022-08-25T03:07:31.892Z,7.22
2022-08-25T03:10:10.529Z,7.47
2022-08-25T03:12:41.658Z,7.03
2022-08-25T03:15:12.854Z,7.53
2022-08-25T03:17:43.822Z,7.90
2022-08-25T03:20:15.462Z,7.80
2022-08-25T03:22:44.949Z,7.90
2022-08-25T03:25:33.225Z,7.88
2022-08-25T03:28:03.970Z,7.67
2022-08-25T03:30:33.526Z,6.70
2022-08-25T03:33:02.823Z,7.30
2022-08-25T03:35:32.450Z,7.25
2022-08-25T03:38:02.682Z,6.85
2022-08-25T03:40:33.569Z,7.40
2022-08-25T03:43:03.795Z,7.53
2022-08-25T03:48:02.370Z,6.40
2022-08-25T03:50:31.948Z,6.55
2022-08-25T03:53:01.250Z,6.40
2022-08-25T03:55:32.579Z,5.93
2022-08-25T03:58:02.378Z,5.90
2022-08-25T04:00:31.789Z,5.82
2022-08-25T04:03:01.331Z,6.15
2022-08-25T04:05:30.935Z,6.30
2022-08-25T04:08:02.694Z,6.72
2022-08-25T04:13:03.626Z,6.18
2022-08-25T04:15:33.206Z,6.70
2022-08-25T04:18:02.536Z,6.25
2022-08-25T04:20:31.832Z,6.57
2022-08-25T04:23:01.712Z,6.72
2022-08-25T04:25:31.487Z,6.80
2022-08-25T04:28:02.321Z,6.70
2022-08-25T04:30:31.873Z,7.20
2022-08-25T04:33:03.336Z,6.88
2022-08-25T04:35:32.932Z,7.43
2022-08-25T04:38:02.807Z,7.43
2022-08-25T04:40:33.241Z,6.82
2022-08-25T04:43:04.231Z,6.47
2022-08-25T04:45:33.601Z,6.25
2022-08-25T04:48:02.902Z,6.75
2022-08-25T04:50:32.596Z,6.88
2022-08-25T04:55:31.845Z,6.13
2022-08-25T04:58:01.597Z,6.43
2022-08-25T05:00:32.421Z,6.53
2022-08-25T05:03:01.677Z,6.90
2022-08-25T05:08:03.715Z,6.88
2022-08-25T05:10:33.802Z,6.55
2022-08-25T05:13:03.191Z,6.35
2022-08-25T05:15:52.581Z,6.38
2022-08-25T05:18:26.494Z,7.03
2022-08-25T05:20:56.863Z,6.53
2022-08-25T05:23:27.040Z,6.70
2022-08-25T05:28:25.974Z,6.38
2022-08-25T05:31:00.688Z,5.72
2022-08-25T05:33:32.147Z,6.88
2022-08-25T05:36:02.298Z,6.10
2022-08-25T05:38:31.621Z,5.75
2022-08-25T05:41:03.487Z,5.93
2022-08-25T05:43:33.213Z,6.10
2022-08-25T05:46:04.144Z,5.85
2022-08-25T05:48:33.776Z,5.70
2022-08-25T05:51:05.366Z,5.90
2022-08-25T05:53:35.741Z,5.57
2022-08-25T05:56:06.135Z,6.53
2022-08-25T05:58:36.371Z,5.63
2022-08-25T06:03:50.991Z,6.38
2022-08-25T06:06:20.746Z,6.30
2022-08-25T06:08:50.079Z,5.85
2022-08-25T06:11:20.315Z,5.75
2022-08-25T06:13:50.087Z,6.40
2022-08-25T06:16:20.844Z,6.15
2022-08-25T06:18:50.641Z,5.68
2022-08-25T06:21:19.965Z,5.97
2022-08-25T06:23:50.371Z,6.28
2022-08-25T06:26:22.597Z,6.00
2022-08-25T06:28:54.652Z,6.05
2022-08-25T06:31:25.687Z,6.18
2022-08-25T06:33:55.085Z,6.10
2022-08-25T06:36:24.688Z,5.70
2022-08-25T06:38:54.703Z,6.07
2022-08-25T06:41:25.375Z,6.18
2022-08-25T06:44:07.119Z,6.07
2022-08-25T06:49:08.167Z,6.20
2022-08-25T06:51:37.766Z,7.00
2022-08-25T06:54:10.115Z,6.40
2022-08-25T06:56:40.785Z,6.07
2022-08-25T06:59:11.573Z,5.65
2022-08-25T07:01:42.698Z,6.75
2022-08-25T07:04:13.057Z,5.88
2022-08-25T07:06:43.051Z,6.30
2022-08-25T07:09:13.768Z,6.57
2022-08-25T07:11:46.539Z,6.05
2022-08-25T07:14:17.346Z,5.88
2022-08-25T07:16:50.369Z,6.63
2022-08-25T07:19:21.531Z,6.03
2022-08-25T07:21:54.222Z,6.82
2022-08-25T07:24:24.635Z,7.00
2022-08-25T07:26:54.316Z,6.95
2022-08-25T07:29:31.624Z,6.80
2022-08-25T07:32:05.086Z,6.50
2022-08-25T07:34:52.823Z,6.55
2022-08-25T07:37:50.301Z,6.35
2022-08-25T07:40:26.655Z,6.38
2022-08-25T07:42:58.934Z,7.25
2022-08-25T07:45:31.771Z,6.70
2022-08-25T07:48:05.405Z,7.05
2022-08-25T07:50:38.804Z,6.85
2022-08-25T07:53:08.869Z,6.75
2022-08-25T07:55:38.800Z,6.82
2022-08-25T07:58:10.878Z,6.65
2022-08-25T08:00:42.294Z,5.90
2022-08-25T08:06:03.026Z,7.10
2022-08-25T08:08:33.465Z,6.85
2022-08-25T08:13:39.327Z,6.88
2022-08-25T08:16:11.734Z,7.50
2022-08-25T08:18:44.818Z,7.65
2022-08-25T08:21:19.231Z,7.90
2022-08-25T08:23:50.338Z,7.40
2022-08-25T08:26:20.586Z,7.97
2022-08-25T08:28:51.930Z,7.88
2022-08-25T08:31:24.181Z,7.80
2022-08-25T08:33:58.639Z,8.27
2022-08-25T08:36:28.635Z,7.97
2022-08-25T08:38:59.407Z,8.45
2022-08-25T08:42:11.255Z,8.80
2022-08-25T08:44:58.088Z,8.85
2022-08-25T08:47:52.811Z,10.75
2022-08-25T08:50:33.781Z,10.68
2022-08-25T08:53:11.905Z,12.55
2022-08-25T08:55:44.272Z,12.30
2022-08-25T08:58:19.379Z,12.55
2022-08-25T09:00:52.588Z,11.07
2022-08-25T09:03:32.979Z,11.88
2022-08-25T09:08:39.274Z,12.18
2022-08-25T09:11:24.945Z,14.50
2022-08-25T09:14:11.234Z,14.88
2022-08-25T09:16:57.150Z,14.70
2022-08-25T09:19:48.421Z,14.80
2022-08-25T09:22:35.053Z,14.32
2022-08-25T09:25:18.779Z,13.52
2022-08-25T09:28:06.313Z,12.27
2022-08-25T09:30:48.692Z,12.23
2022-08-25T09:33:23.444Z,12.45
2022-08-25T09:35:57.421Z,13.85
2022-08-25T09:38:30.934Z,14.35
2022-08-25T09:41:02.635Z,14.40
2022-08-25T09:43:35.723Z,13.48
2022-08-25T09:46:12.396Z,13.35
2022-08-25T09:48:48.419Z,14.55
2022-08-25T09:51:42.228Z,14.68
2022-08-25T09:54:25.386Z,13.82
2022-08-25T09:57:05.542Z,15.70
2022-08-25T09:59:39.050Z,15.93
2022-08-25T10:02:26.707Z,14.88
2022-08-25T10:04:57.190Z,14.07
2022-08-25T10:07:33.784Z,14.52
2022-08-25T10:10:07.782Z,13.27
2022-08-25T10:12:43.198Z,14.68
2022-08-25T10:15:29.441Z,14.10
2022-08-25T10:18:25.717Z,13.18
2022-08-25T10:21:10.155Z,13.95
2022-08-25T10:23:44.883Z,14.73
2022-08-25T10:26:25.658Z,13.80
2022-08-25T10:29:07.648Z,13.40
2022-08-25T10:31:49.158Z,13.95
2022-08-25T10:34:31.339Z,13.80
2022-08-25T10:37:12.375Z,11.73
2022-08-25T10:40:02.821Z,12.32
2022-08-25T10:42:40.651Z,12.38
2022-08-25T10:45:38.489Z,11.88
2022-08-25T10:48:31.918Z,11.70
2022-08-25T10:51:09.129Z,12.15
2022-08-25T10:53:51.825Z,11.30
2022-08-25T10:56:25.912Z,11.40
2022-08-25T10:59:22.297Z,11.27
2022-08-25T11:02:29.663Z,11.00
2022-08-25T11:05:04.336Z,9.85
2022-08-25T11:07:38.370Z,10.60
2022-08-25T11:10:14.723Z,10.43
2022-08-25T11:12:46.987Z,10.80
2022-08-25T11:15:21.387Z,10.48
2022-08-25T11:17:58.760Z,10.35
2022-08-25T11:20:34.628Z,10.88
2022-08-25T11:23:13.683Z,9.68
2022-08-25T11:25:45.930Z,10.07
2022-08-25T11:28:23.134Z,9.13
2022-08-25T11:30:57.321Z,9.52
2022-08-25T11:33:31.114Z,9.60
2022-08-25T11:36:03.791Z,10.40
2022-08-25T11:38:47.890Z,9.57
2022-08-25T11:41:28.236Z,9.55
2022-08-25T11:44:31.487Z,9.43
2022-08-25T11:47:21.617Z,8.45
2022-08-25T11:50:02.085Z,8.80
2022-08-25T11:52:51.099Z,8.07
2022-08-25T11:55:24.343Z,9.18
2022-08-25T11:58:14.971Z,8.65
2022-08-25T12:00:46.606Z,8.68
2022-08-25T12:03:52.185Z,9.20
2022-08-25T12:06:28.365Z,9.25
2022-08-25T12:09:20.613Z,8.82
2022-08-25T12:11:58.088Z,8.57
2022-08-25T12:14:45.849Z,7.80
2022-08-25T12:17:29.624Z,8.30
2022-08-25T12:20:01.278Z,8.10
2022-08-25T12:22:57.117Z,8.38
2022-08-25T12:25:43.737Z,9.07
2022-08-25T12:28:35.502Z,8.63
2022-08-25T12:31:17.286Z,9.95
2022-08-25T12:34:02.383Z,8.65
2022-08-25T12:36:34.202Z,9.25
2022-08-25T12:39:24.219Z,9.07
2022-08-25T12:41:59.237Z,8.88
2022-08-25T12:44:40.938Z,9.60
2022-08-25T12:47:28.330Z,9.80
2022-08-25T12:50:33.537Z,10.15
2022-08-25T12:53:16.364Z,10.13
2022-08-25T12:55:55.499Z,9.75
2022-08-25T12:58:43.725Z,9.85
2022-08-25T13:01:36.139Z,10.95
2022-08-25T13:04:25.326Z,10.15
2022-08-25T13:07:27.899Z,9.40
2022-08-25T13:10:25.503Z,11.38
2022-08-25T13:13:05.903Z,12.02
2022-08-25T13:15:44.416Z,12.63
2022-08-25T13:18:23.808Z,12.67
2022-08-25T13:20:57.044Z,11.52
2022-08-25T13:23:30.231Z,11.95
2022-08-25T13:26:00.027Z,12.88
2022-08-25T13:28:34.703Z,12.70
2022-08-25T13:31:08.265Z,12.25
2022-08-25T13:33:38.595Z,11.15
2022-08-25T13:36:34.881Z,12.23
2022-08-25T13:39:15.214Z,12.40
2022-08-25T13:41:50.106Z,11.80
2022-08-25T13:44:29.517Z,11.38
2022-08-25T13:47:10.129Z,11.25
2022-08-25T13:49:41.033Z,11.18
2022-08-25T13:52:19.289Z,11.70
2022-08-25T13:55:01.194Z,11.20
2022-08-25T13:57:34.564Z,12.38
2022-08-25T14:00:09.462Z,11.45
2022-08-25T14:02:44.203Z,12.02
2022-08-25T14:05:17.423Z,11.32
2022-08-25T14:08:03.869Z,10.43
2022-08-25T14:10:46.708Z,10.30
2022-08-25T14:13:18.972Z,10.57
2022-08-25T14:15:50.029Z,10.70
2022-08-25T14:18:27.082Z,11.02
2022-08-25T14:20:58.884Z,11.93
2022-08-25T14:23:30.426Z,11.82
2022-08-25T14:26:00.839Z,11.50
2022-08-25T14:28:31.923Z,13.13
2022-08-25T14:31:06.686Z,12.95
2022-08-25T14:33:39.740Z,13.07
2022-08-25T14:36:10.344Z,13.05
2022-08-25T14:38:41.281Z,12.88
2022-08-25T14:41:14.012Z,14.02
2022-08-25T14:43:45.330Z,13.30
2022-08-25T14:46:21.966Z,13.95
2022-08-25T14:48:56.622Z,13.82
2022-08-25T14:51:28.410Z,13.68
2022-08-25T14:54:02.585Z,13.40
2022-08-25T14:56:32.554Z,13.52
2022-08-25T14:59:02.399Z,13.88
2022-08-25T15:01:36.002Z,13.40
2022-08-25T15:04:10.036Z,14.05
2022-08-25T15:06:43.754Z,14.00
2022-08-25T15:09:16.311Z,13.25
2022-08-25T15:11:48.324Z,13.80
2022-08-25T15:14:29.131Z,13.40
2022-08-25T15:17:06.767Z,13.98
2022-08-25T15:19:36.683Z,14.68
2022-08-25T15:22:06.710Z,13.50
2022-08-25T15:24:37.971Z,12.90
2022-08-25T15:27:09.988Z,13.20
2022-08-25T15:29:40.906Z,13.00
2022-08-25T15:32:12.486Z,12.45
2022-08-25T15:34:41.787Z,12.90
2022-08-25T15:37:14.646Z,13.00
2022-08-25T15:39:45.184Z,13.98
2022-08-25T15:42:15.360Z,12.50
2022-08-25T15:44:53.110Z,12.57
2022-08-25T15:47:25.464Z,12.13
2022-08-25T15:50:04.958Z,12.18
2022-08-25T15:52:45.905Z,11.27
2022-08-25T15:55:18.172Z,11.45
2022-08-25T15:57:49.896Z,11.57
2022-08-25T16:02:52.475Z,9.50
2022-08-25T16:05:25.739Z,10.43
2022-08-25T16:07:55.706Z,10.07
2022-08-25T16:10:25.113Z,10.45
2022-08-25T16:12:54.481Z,10.73
2022-08-25T16:15:28.631Z,11.32
2022-08-25T16:18:01.291Z,9.55
2022-08-25T16:20:31.757Z,9.45
2022-08-25T16:23:03.860Z,9.23
2022-08-25T16:25:33.805Z,9.15
2022-08-25T16:28:05.917Z,9.07
2022-08-25T16:30:35.641Z,8.35
2022-08-25T16:33:06.755Z,8.75
2022-08-25T16:35:36.866Z,8.52
2022-08-25T16:38:10.161Z,8.88
2022-08-25T16:40:43.347Z,8.55
2022-08-25T16:43:13.345Z,8.20
2022-08-25T16:45:42.884Z,8.70
2022-08-25T16:48:13.540Z,9.00
2022-08-25T16:50:42.839Z,9.27
2022-08-25T16:53:32.592Z,10.77
2022-08-25T16:56:07.525Z,12.18
2022-08-25T16:58:38.583Z,11.48
2022-08-25T17:01:11.435Z,10.05
2022-08-25T17:03:43.968Z,9.77
2022-08-25T17:06:14.262Z,10.00
2022-08-25T17:08:44.717Z,10.73
2022-08-25T17:11:15.919Z,11.35
2022-08-25T17:13:47.816Z,10.98
2022-08-25T17:16:21.560Z,10.73
2022-08-25T17:18:52.489Z,11.25
2022-08-25T17:21:26.867Z,10.23
2022-08-25T17:23:57.901Z,10.93
2022-08-25T17:26:29.065Z,11.88
2022-08-25T17:28:59.622Z,11.38
2022-08-25T17:31:30.942Z,12.30
2022-08-25T17:34:02.073Z,12.45
2022-08-25T17:36:31.384Z,12.18
2022-08-25T17:39:01.432Z,12.13
2022-08-25T17:41:31.288Z,11.80
2022-08-25T17:46:30.815Z,11.40
2022-08-25T17:51:31.776Z,11.65
2022-08-25T17:54:01.582Z,11.75
2022-08-25T17:56:33.424Z,11.20
2022-08-25T17:59:02.980Z,11.38
2022-08-25T18:01:35.358Z,11.32
2022-08-25T18:04:17.680Z,12.48
2022-08-25T18:06:49.371Z,12.55
2022-08-25T18:09:19.162Z,12.40
2022-08-25T18:11:48.590Z,11.98
2022-08-25T18:14:21.192Z,12.05
2022-08-25T18:16:54.005Z,12.27
2022-08-25T18:19:24.980Z,10.55
2022-08-25T18:21:54.490Z,10.90
2022-08-25T18:24:23.843Z,11.20
2022-08-25T18:26:53.167Z,11.30
2022-08-25T18:29:22.813Z,10.93
2022-08-25T18:31:53.670Z,12.90
2022-08-25T18:34:27.269Z,15.15
2022-08-25T18:37:20.112Z,11.63
2022-08-25T18:42:36.881Z,12.63
2022-08-25T18:45:08.106Z,12.48
2022-08-25T18:47:41.880Z,12.63
2022-08-25T18:50:13.650Z,13.63
2022-08-25T18:52:44.119Z,14.25
2022-08-25T18:57:43.518Z,13.77
2022-08-25T19:00:17.053Z,14.27
2022-08-25T19:02:47.563Z,15.45
2022-08-25T19:05:20.467Z,15.27
2022-08-25T19:07:51.786Z,14.90
2022-08-25T19:10:24.047Z,16.02
2022-08-25T19:12:55.558Z,15.75
2022-08-25T19:15:27.190Z,15.85
2022-08-25T19:17:59.874Z,16.35
2022-08-25T19:20:31.215Z,14.30
2022-08-25T19:23:01.189Z,15.73
2022-08-25T19:25:33.044Z,16.10
2022-08-25T19:28:08.369Z,16.48
2022-08-25T19:30:43.718Z,16.98
2022-08-25T19:33:37.709Z,17.07
2022-08-25T19:36:11.962Z,17.48
2022-08-25T19:38:44.033Z,17.17
2022-08-25T19:41:15.080Z,17.95
2022-08-25T19:43:56.781Z,17.55
2022-08-25T19:46:35.387Z,17.45
2022-08-25T19:49:09.005Z,18.00
2022-08-25T19:51:44.344Z,17.83
2022-08-25T19:54:16.220Z,18.58
2022-08-25T19:56:54.875Z,16.60
2022-08-25T19:59:42.315Z,16.92
2022-08-25T20:02:17.106Z,17.90
2022-08-25T20:04:49.308Z,17.60
2022-08-25T20:07:22.860Z,17.38
2022-08-25T20:09:54.587Z,16.08
2022-08-25T20:12:25.244Z,16.92
2022-08-25T20:14:56.488Z,16.83
2022-08-25T20:20:00.741Z,15.75
2022-08-25T20:22:33.959Z,16.13
2022-08-25T20:25:13.158Z,16.77
2022-08-25T20:27:45.339Z,16.38
2022-08-25T20:30:18.178Z,15.98
2022-08-25T20:32:47.561Z,15.60
2022-08-25T20:35:18.218Z,15.70
2022-08-25T20:37:49.780Z,16.10
2022-08-25T20:40:25.753Z,15.38
2022-08-25T20:42:55.723Z,14.90
2022-08-25T20:45:25.586Z,14.90
2022-08-25T20:47:54.896Z,14.85
2022-08-25T20:52:57.636Z,14.38
2022-08-25T20:55:27.777Z,13.38
2022-08-25T20:57:58.388Z,13.80
2022-08-25T21:00:27.682Z,13.98
2022-08-25T21:02:56.984Z,12.88
2022-08-25T21:05:26.571Z,13.68
2022-08-25T21:07:57.245Z,13.65
2022-08-25T21:10:26.829Z,14.48
2022-08-25T21:12:56.311Z,13.18
2022-08-25T21:15:26.329Z,13.70
2022-08-25T21:17:56.732Z,14.32
2022-08-25T21:20:27.078Z,12.68
2022-08-25T21:22:57.833Z,13.75
2022-08-25T21:25:27.337Z,13.10
2022-08-25T21:27:56.686Z,13.65
2022-08-25T21:30:27.217Z,13.30
2022-08-25T21:32:58.163Z,13.68
2022-08-25T21:35:27.882Z,13.25
2022-08-25T21:38:00.149Z,13.50
2022-08-25T21:40:29.503Z,13.32
2022-08-25T21:42:58.765Z,13.95
2022-08-25T21:45:28.280Z,13.32
2022-08-25T21:48:05.898Z,14.13
2022-08-25T21:50:35.594Z,14.85
2022-08-25T21:53:06.472Z,14.40
2022-08-25T21:55:41.912Z,13.70
2022-08-25T21:58:11.369Z,15.00
2022-08-25T22:00:40.918Z,14.18
2022-08-25T22:03:10.189Z,13.63
2022-08-25T22:05:39.569Z,14.18
2022-08-25T22:08:11.560Z,14.35
2022-08-25T22:10:44.839Z,14.38
2022-08-25T22:13:14.334Z,14.77
2022-08-25T22:15:43.660Z,14.32
2022-08-25T22:18:12.958Z,14.48
2022-08-25T22:20:42.617Z,15.23
2022-08-25T22:23:20.148Z,13.90
2022-08-25T22:25:50.072Z,14.00
2022-08-25T22:28:20.871Z,13.98
2022-08-25T22:30:51.166Z,14.55
2022-08-25T22:33:20.466Z,13.68
2022-08-25T22:35:53.163Z,14.45
2022-08-25T22:38:31.577Z,15.02
2022-08-25T22:41:03.612Z,14.13
2022-08-25T22:43:33.076Z,14.02
2022-08-25T22:46:03.666Z,14.23
2022-08-25T22:48:33.008Z,13.93
2022-08-25T22:51:09.604Z,14.88
2022-08-25T22:53:42.313Z,14.20
2022-08-25T22:56:13.361Z,13.35
2022-08-25T22:58:52.158Z,14.32
2022-08-25T23:01:22.853Z,14.48
2022-08-25T23:03:52.587Z,14.43
2022-08-25T23:06:25.223Z,14.75
2022-08-25T23:08:57.644Z,14.35
2022-08-25T23:11:27.097Z,14.38
2022-08-25T23:14:02.193Z,13.43
2022-08-25T23:16:31.770Z,14.13
2022-08-25T23:19:01.801Z,13.70
2022-08-25T23:21:49.200Z,13.80
2022-08-25T23:24:29.135Z,12.40
2022-08-25T23:27:00.993Z,14.15
2022-08-25T23:29:31.156Z,14.02
2022-08-25T23:32:00.443Z,12.55
2022-08-25T23:34:30.776Z,13.85
2022-08-25T23:37:04.308Z,14.18
2022-08-25T23:39:34.976Z,13.75
2022-08-25T23:42:09.552Z,14.43
2022-08-25T23:47:08.020Z,13.70
2022-08-25T23:49:41.587Z,14.52
2022-08-25T23:52:10.945Z,14.90
2022-08-25T23:54:41.643Z,15.13
2022-08-25T23:57:11.186Z,14.38
2022-08-25T23:59:40.901Z,14.20
